• Join FlightAware (Why Join?)
  • Login
  • US Flag 
09:04AM EDT


 

Airport Tracker/Info


-or-


 

Live Flight TrackerFlight Track Log ✈ ASQ6151 ✈ 06-May-2013 ✈ KSAV - KORD

Flight Track Log - Related Links

Times and Time Zones

All times are in EDT time to prevent confusion due to time zone crossing. See the ASQ6151 flight status page for this flight to view local times or setup timezone preferences in your user account.

Time Position Orientation Groundspeed Altitude Reporting Facility
EDT Latitude Longitude Course Direction KTS MPH feet Rate Location/Type
06:46PM 32.2372 -81.2519 North 228 262 6,400  Level Jacksonville Center
06:48PM 32.4355 -81.1667 North  Level FlightAware Approximate
06:49PM 32.6797 -81.1500 North  Level FlightAware Approximate
06:49PM 32.5222 -81.1703 North 327 376 11,400  Level Jacksonville Center
06:50PM 32.7913 -81.1386 North  Level FlightAware Approximate
06:50PM 32.6347 -81.1608 North 354 407 13,100  Level Jacksonville Center
06:51PM 32.9027 -81.1247 North  Level FlightAware Approximate
06:52PM 32.7868 -81.1392 North  Level FlightAware Approximate
06:53PM 32.9392 -81.1328 North 373 429 16,600  Level Jacksonville Center
06:54PM 33.0497 -81.1231 North 379 436 17,600 1,020 Climbing Jacksonville Center
06:55PM 33.2169 -81.1000 North  Level FlightAware Approximate
06:55PM 33.1644 -81.1158 North 396 456 18,700  Level Jacksonville Center
06:56PM 33.2833 -81.1061 North 406 467 19,700 1,020 Climbing Jacksonville Center
06:57PM 33.3978 -81.0964 North 411 473 20,800 960 Climbing Jacksonville Center
06:58PM 33.5189 -81.0839 North 421 484 21,700 1,020 Climbing Jacksonville Center
07:00PM 33.6687 -81.0610 North  Level FlightAware Approximate
07:00PM 33.7708 -81.0611 North 426 490 23,900  Level Jacksonville Center
07:02PM 34.0033 -81.1114 350° North 413 475 25,800 960 Climbing Jacksonville Center
07:03PM 34.1042 -81.1544 341° North 420 483 26,800 960 Climbing Jacksonville Center
07:06PM 34.2370 -81.2001 344° North  Level FlightAware Approximate
07:06PM 34.4567 -81.3028 344° North 420 483 29,800  Level Atlanta Center
07:07PM 34.5683 -81.3472 342° North 413 475 30,800 900 Climbing Atlanta Center
07:08PM 34.6778 -81.3917 342° North 413 475 31,700 780 Climbing Atlanta Center
07:09PM 34.7914 -81.4386 341° North 420 483 32,400 840 Climbing Atlanta Center
07:10PM 34.9050 -81.4833 342° North 420 483 33,400 960 Climbing Atlanta Center
07:11PM 35.0186 -81.5306 341° North 428 493 34,400 960 Climbing Atlanta Center
07:12PM 35.1303 -81.5806 340° North 428 493 35,400 780 Climbing Atlanta Center
07:13PM 35.2292 -81.6208 342° North 428 493 36,000 300 Climbing Atlanta Center
07:14PM 35.3447 -81.6683 341° North 428 493 36,000  Level Atlanta Center
07:16PM 35.4776 -81.7147 344° North  Level FlightAware Approximate
07:16PM 35.5867 -81.7711 344° North 456 525 36,000  Level Atlanta Center
07:18PM 35.8189 -81.9261 332° Northwest 458 527 36,000  Level Atlanta Center
07:19PM 35.9267 -82.0103 328° Northwest 458 527 36,000  Level Atlanta Center
07:21PM 36.1381 -82.1772 327° Northwest 458 527 36,000  Level Atlanta Center
07:22PM 36.2289 -82.2550 325° Northwest 448 516 36,000  Level Atlanta Center
07:23PM 36.3344 -82.3403 327° Northwest 448 516 36,000  Level Atlanta Center
07:24PM 36.4378 -82.4258 326° Northwest 448 516 36,000  Level Atlanta Center
07:25PM 36.5431 -82.5117 327° Northwest 448 516 36,000  Level Atlanta Center
07:27PM 36.7019 -82.6431 326° Northwest 451 519 36,000  Level Indianapolis Center
07:29PM 36.9203 -82.8250 326° Northwest 459 528 36,000  Level Indianapolis Center
07:30PM 37.0278 -82.9142 326° Northwest 453 521 36,000  Level Indianapolis Center
07:31PM 37.1322 -83.0022 326° Northwest 454 522 36,000  Level Indianapolis Center
07:32PM 37.2367 -83.0908 326° Northwest 455 524 36,000  Level Indianapolis Center
07:33PM 37.3608 -83.1942 327° Northwest 458 527 36,000  Level Indianapolis Center
07:34PM 37.4686 -83.2861 326° Northwest 464 534 36,000  Level Indianapolis Center
07:35PM 37.5767 -83.3778 326° Northwest 467 537 36,000  Level Indianapolis Center
07:36PM 37.6853 -83.4706 326° Northwest 471 542 36,000  Level Indianapolis Center
07:37PM 37.7933 -83.5633 326° Northwest 472 543 36,000 -300 Level Indianapolis Center
07:38PM 37.9044 -83.6564 327° Northwest 478 550 35,500 -840 Descending Indianapolis Center
07:39PM 38.0406 -83.7594 329° Northwest 486 559 34,400 -420 Descending Indianapolis Center
07:41PM 38.1684 -83.8750 325° Northwest  Level FlightAware Approximate
07:42PM 38.3858 -84.0186 319° Northwest 480 552 34,000  Level Indianapolis Center
07:43PM 38.5011 -84.1086 329° Northwest 483 556 34,000  Level Indianapolis Center
07:44PM 38.6181 -84.1981 329° Northwest 490 564 34,000  Level Indianapolis Center
07:45PM 38.7506 -84.2989 329° Northwest 488 562 34,000  Level Indianapolis Center
07:46PM 38.8678 -84.3892 329° Northwest 488 562 34,000  Level Indianapolis Center
07:47PM 38.9847 -84.4800 329° Northwest 488 562 34,000  Level Indianapolis Center
07:48PM 38.7985 -84.4899 319° Northwest  Level FlightAware Approximate
07:48PM 39.0997 -84.5683 329° Northwest 480 552 34,000  Level Indianapolis Center
07:49PM 39.2125 -84.6569 329° Northwest 470 541 34,000  Level Indianapolis Center
07:50PM 39.3250 -84.7442 329° Northwest 466 536 34,000 -480 Level Indianapolis Center
07:51PM 39.4364 -84.8319 329° Northwest 464 534 33,100 -1,320 Descending Indianapolis Center
07:52PM 39.5517 -84.9225 329° Northwest 456 525 31,300 -2,040 Descending Indianapolis Center
07:53PM 39.6592 -85.0081 329° Northwest 455 524 29,000 -1,620 Descending Indianapolis Center
07:55PM 39.7619 -85.0889 329° Northwest 439 505 28,000 -960 Descending Indianapolis Center
07:56PM 39.8658 -85.1725 328° Northwest 441 507 27,100 -900 Descending Indianapolis Center
07:57PM 39.9733 -85.2589 328° Northwest 454 522 26,200 -540 Descending Indianapolis Center
07:58PM 40.0833 -85.3475 328° Northwest 464 534 26,000 -180 Descending Indianapolis Center
07:58PM 40.1475 -85.3969 330° Northwest 462 532 26,000 -360 Level Chicago Center
07:59PM 40.2542 -85.4831 328° Northwest 457 526 25,500 -600 Descending Chicago Center
08:02PM 40.5314 -85.6939 330° Northwest 445 512 24,000 -660 Descending Indianapolis Center
08:02PM 40.5983 -85.7297 338° Northwest 446 513 23,500 -960 Descending Chicago Center
08:04PM 40.7420 -85.7805 345° North  Level FlightAware Approximate
08:04PM 40.7061 -85.9114 345° North 454 522 22,100  Level Indianapolis Center
08:04PM 40.7458 -85.9883 304° West 447 514 22,000 -300 Descending Chicago Center
08:06PM 40.8556 -86.1989 305° West 434 499 21,500 -480 Descending Indianapolis Center
08:06PM 40.8817 -86.2508 304° West 432 497 21,100 -1,140 Descending Chicago Center
08:07PM 40.9631 -86.4056 305° West 426 490 19,700 -1,380 Descending Chicago Center
08:10PM 41.1486 -86.7678 304° West 394 453 15,500 -1,440 Descending Chicago Center
08:11PM 41.2222 -86.9083 305° West 388 447 13,800 -1,500 Descending Chicago Center
08:13PM 41.2786 -87.0244 303° West 378 435 12,500 -1,260 Descending Chicago Center
08:14PM 41.3364 -87.1400 304° West 378 435 11,300 -720 Descending Chicago Center
08:15PM 41.4333 -87.2667 316° Northwest 358 412 11,000 -480 Descending Chicago TRACON
08:16PM 41.5000 -87.3500 317° Northwest 355 409 10,300 -540 Descending Chicago TRACON
08:17PM 41.5661 -87.4283 318° Northwest 355 409 10,000 -120 Descending Chicago Center
08:19PM 41.7133 -87.5925 320° Northwest 348 400 10,000 -540 Level Chicago Center
08:20PM 41.7714 -87.6594 319° Northwest 290 334 8,500 -1,380 Descending Chicago Center
08:21PM 41.8167 -87.7667 300° West 280 322 7,000 -900 Descending Chicago TRACON
08:23PM 41.9667 -87.9000 312° West  Level FlightAware Approximate
08:23PM 41.8042 -87.9292 312° West 259 298 5,800  Level Chicago Center
08:24PM 41.7564 -87.9808 219° Southwest 231 266 5,000 -600 Descending Chicago Center
08:26PM 41.8164 -88.0453 321° Northwest 196 226 4,100 -540 Descending Chicago Center
08:27PM 41.8617 -88.0100 30° Northeast 192 221 3,500 -840 Descending Chicago Center
08:28PM 41.9000 -87.9667 40° Northeast 172 198 2,600 -720 Descending Chicago TRACON
08:30PM 41.9572 -87.8967 42° Northeast 163 188 1,300 -600 Descending Chicago Center
08:32PM 41.9667 -87.9000 312° West  Level FlightAware Approximate